Time;durP1;ratioP1;P1;durP2;ratioP2;P2;SDS_P1;SDS_P2;PMS_P1;PMS_P2;Temp;Humidity;BMP_temperature;BMP_pressure;BME280_temperature;BME280_humidity;BME280_pressure;Samples;Min_cycle;Max_cycle;Signal;HPM_P1;HPM_P2
2022/06/17 00:01:02;;;;;;;3.45;2.05;;;20.60;51.60;;;;;;5041696;28;20068;-74
2022/06/17 00:03:31;;;;;;;3.95;1.95;;;20.60;51.70;;;;;;5031600;28;20041;-73
2022/06/17 00:05:59;;;;;;;2.40;2.03;;;20.50;51.60;;;;;;5039286;28;20515;-74
2022/06/17 00:08:31;;;;;;;2.50;2.13;;;20.50;51.70;;;;;;5011498;28;20493;-75
2022/06/17 00:10:57;;;;;;;2.33;1.95;;;20.40;51.70;;;;;;5039198;28;20084;-74
2022/06/17 00:13:24;;;;;;;2.13;1.75;;;20.40;51.70;;;;;;5021089;28;20424;-74
2022/06/17 00:15:52;;;;;;;2.40;2.20;;;20.40;51.80;;;;;;5021175;28;20040;-74
2022/06/17 00:18:19;;;;;;;3.35;2.25;;;20.40;51.90;;;;;;5042211;28;20121;-73
2022/06/17 00:20:46;;;;;;;2.85;1.80;;;20.30;51.80;;;;;;5040152;28;20551;-74
2022/06/17 00:23:15;;;;;;;3.50;1.67;;;20.30;51.90;;;;;;5040310;28;20044;-74
2022/06/17 00:25:45;;;;;;;3.03;2.30;;;20.20;51.80;;;;;;5038194;28;20057;-74
2022/06/17 00:28:15;;;;;;;2.25;1.83;;;20.20;51.80;;;;;;5036742;28;20032;-73
2022/06/17 00:30:42;;;;;;;2.78;1.95;;;20.20;51.90;;;;;;5038715;28;20029;-74
2022/06/17 00:33:09;;;;;;;2.53;1.95;;;20.10;51.80;;;;;;5022652;28;20024;-74
2022/06/17 00:36:03;;;;;;;4.65;2.28;;;20.10;51.90;;;;;;5030722;28;20523;-74
2022/06/17 00:38:32;;;;;;;2.75;2.05;;;20.10;52.10;;;;;;5038402;28;20107;-73
2022/06/17 00:41:34;;;;;;;3.13;1.85;;;20.00;52.40;;;;;;5018171;28;20028;-73
2022/06/17 00:44:13;;;;;;;2.37;1.73;;;20.00;51.90;;;;;;4979473;28;20055;-73
2022/06/17 00:46:51;;;;;;;3.00;2.28;;;20.00;51.90;;;;;;5019786;28;20037;-73
2022/06/17 00:49:20;;;;;;;3.88;2.00;;;19.90;51.80;;;;;;5036543;28;20060;-74
2022/06/17 00:51:56;;;;;;;3.95;2.75;;;19.90;51.80;;;;;;5018164;28;20029;-74
2022/06/17 00:54:34;;;;;;;3.60;2.38;;;19.90;52.00;;;;;;5037854;28;20404;-73
2022/06/17 00:57:01;;;;;;;3.33;2.25;;;19.90;52.00;;;;;;5035453;28;20045;-73
2022/06/17 00:59:27;;;;;;;4.18;2.20;;;19.90;52.10;;;;;;5034289;28;20036;-74
2022/06/17 01:01:53;;;;;;;2.35;2.15;;;19.80;52.00;;;;;;5022313;28;20029;-73
2022/06/17 01:04:35;;;;;;;2.38;2.00;;;19.80;52.10;;;;;;5023016;28;20470;-73
2022/06/17 01:07:11;;;;;;;2.35;2.00;;;19.70;52.00;;;;;;5012053;28;20071;-74
2022/06/17 01:09:57;;;;;;;2.72;2.33;;;19.70;52.10;;;;;;5021108;28;20025;-74
2022/06/17 01:12:35;;;;;;;3.88;2.75;;;19.70;52.00;;;;;;5021054;28;20269;-74
2022/06/17 01:15:04;;;;;;;2.22;1.90;;;19.60;52.00;;;;;;5020341;28;20072;-74
2022/06/17 01:17:39;;;;;;;2.67;2.05;;;19.60;52.00;;;;;;5002428;28;20460;-74
2022/06/17 01:20:10;;;;;;;2.38;1.80;;;19.60;52.10;;;;;;5011374;28;20024;-74
2022/06/17 01:22:36;;;;;;;2.83;2.53;;;19.60;52.20;;;;;;5017775;28;20025;-74
2022/06/17 01:25:15;;;;;;;2.45;1.73;;;19.50;52.10;;;;;;5023600;28;20139;-74
2022/06/17 01:27:48;;;;;;;2.80;1.92;;;19.50;52.20;;;;;;5006647;28;20061;-73
2022/06/17 01:30:21;;;;;;;2.92;2.20;;;19.40;52.10;;;;;;5005829;28;20025;-74
2022/06/17 01:32:56;;;;;;;2.85;1.88;;;19.40;52.10;;;;;;5039657;28;20029;-73
2022/06/17 01:35:25;;;;;;;2.47;2.00;;;19.40;52.20;;;;;;5037699;28;20039;-73
2022/06/17 01:37:51;;;;;;;2.38;1.98;;;19.30;52.10;;;;;;5021175;28;20166;-75
2022/06/17 01:40:20;;;;;;;6.18;2.38;;;19.30;52.20;;;;;;5000999;28;20260;-75
2022/06/17 01:42:47;;;;;;;3.00;2.33;;;19.30;52.30;;;;;;5027430;28;20026;-73
2022/06/17 01:45:14;;;;;;;3.58;2.10;;;19.20;52.10;;;;;;5023402;28;20024;-73
2022/06/17 01:47:44;;;;;;;2.72;1.67;;;19.20;52.20;;;;;;5028361;28;20080;-74
2022/06/17 01:50:17;;;;;;;3.83;2.88;;;19.20;52.30;;;;;;5038883;28;20048;-73
2022/06/17 01:52:52;;;;;;;3.15;2.50;;;19.20;52.40;;;;;;5053678;28;20055;-73
2022/06/17 01:55:42;;;;;;;2.60;2.10;;;19.10;52.30;;;;;;5038616;28;20342;-74
2022/06/17 01:58:36;;;;;;;3.28;1.67;;;19.10;52.40;;;;;;5043111;28;20043;-74
2022/06/17 02:01:05;;;;;;;2.88;2.08;;;19.10;52.40;;;;;;5027048;28;20039;-73
2022/06/17 02:03:42;;;;;;;2.85;1.85;;;19.10;52.40;;;;;;5025912;28;20299;-72
2022/06/17 02:06:11;;;;;;;3.78;1.85;;;19.00;52.30;;;;;;5026864;28;20122;-73
2022/06/17 02:08:38;;;;;;;2.35;2.15;;;19.00;52.30;;;;;;5033916;28;20350;-73
2022/06/17 02:11:07;;;;;;;5.47;2.35;;;19.00;52.40;;;;;;5023356;28;21523;-73
2022/06/17 02:13:35;;;;;;;2.53;2.15;;;19.00;52.50;;;;;;5024543;28;20076;-73
2022/06/17 02:16:27;;;;;;;3.05;2.13;;;18.90;52.40;;;;;;5037042;28;20033;-74
2022/06/17 02:19:11;;;;;;;;;;;18.90;52.40;;;;;;5022902;28;20876;-74
2022/06/17 02:22:10;;;;;;;4.13;2.13;;;18.80;52.10;;;;;;5043361;28;19916;-73
2022/06/17 02:24:38;;;;;;;2.80;1.80;;;18.80;52.20;;;;;;5024703;28;20033;-75
2022/06/17 02:27:07;;;;;;;3.75;2.50;;;18.80;52.20;;;;;;5026829;28;20039;-75
2022/06/17 02:29:36;;;;;;;2.88;2.38;;;18.70;52.20;;;;;;5035487;28;20036;-74
2022/06/17 02:32:05;;;;;;;5.28;2.28;;;18.70;52.30;;;;;;5026812;28;20083;-74
2022/06/17 02:34:46;;;;;;;3.08;2.30;;;18.70;52.40;;;;;;5024981;28;20040;-73
2022/06/17 02:37:16;;;;;;;3.15;2.10;;;18.70;52.50;;;;;;5023389;28;20037;-73
2022/06/17 02:39:47;;;;;;;3.85;2.65;;;18.60;52.50;;;;;;5003778;28;20021;-73
2022/06/17 02:42:22;;;;;;;2.63;2.05;;;18.60;52.50;;;;;;5029611;28;20546;-74
2022/06/17 02:44:55;;;;;;;3.60;2.15;;;18.60;52.70;;;;;;5030132;28;20093;-74
2022/06/17 02:47:23;;;;;;;2.63;2.03;;;18.50;52.60;;;;;;5026802;28;20122;-73
2022/06/17 02:49:51;;;;;;;3.28;2.28;;;18.50;52.60;;;;;;5026934;28;20061;-74
2022/06/17 02:52:23;;;;;;;3.63;2.20;;;18.50;52.70;;;;;;5023957;28;20040;-73
2022/06/17 02:54:59;;;;;;;2.90;2.08;;;18.50;52.70;;;;;;5026899;28;20132;-74
2022/06/17 02:57:29;;;;;;;3.70;2.42;;;18.50;52.90;;;;;;5023837;28;20180;-74
2022/06/17 03:00:06;;;;;;;2.75;1.90;;;18.50;52.90;;;;;;4997064;28;20041;-73
2022/06/17 03:02:38;;;;;;;3.38;2.33;;;18.40;52.80;;;;;;5027896;28;20025;-74
2022/06/17 03:05:14;;;;;;;3.53;2.00;;;18.40;52.90;;;;;;5026912;28;20455;-73
2022/06/17 03:07:40;;;;;;;4.13;1.98;;;18.40;52.90;;;;;;5043798;28;20534;-74
2022/06/17 03:10:17;;;;;;;2.28;1.80;;;18.40;53.00;;;;;;5014287;28;20034;-75
2022/06/17 03:12:46;;;;;;;3.08;1.80;;;18.30;52.80;;;;;;5021830;28;20039;-74
2022/06/17 03:15:16;;;;;;;2.28;2.00;;;18.30;52.80;;;;;;5025922;28;20278;-74
2022/06/17 03:17:45;;;;;;;2.50;1.98;;;18.30;52.90;;;;;;5046035;28;20033;-73
2022/06/17 03:20:17;;;;;;;4.43;2.13;;;18.30;52.90;;;;;;5042440;28;20056;-74
2022/06/17 03:22:49;;;;;;;2.70;2.25;;;18.30;53.00;;;;;;5020622;28;20033;-75
2022/06/17 03:25:38;;;;;;;2.90;1.90;;;18.20;52.80;;;;;;5024731;28;20044;-74
2022/06/17 03:28:09;;;;;;;3.20;2.05;;;18.20;53.00;;;;;;5044772;28;20476;-75
2022/06/17 03:30:40;;;;;;;3.33;1.90;;;18.20;53.00;;;;;;5015197;28;20040;-74
2022/06/17 03:33:28;;;;;;;4.63;2.17;;;18.20;53.00;;;;;;5037890;28;20405;-75
2022/06/17 03:35:59;;;;;;;5.00;1.92;;;18.10;53.00;;;;;;5015538;28;20120;-74
2022/06/17 03:38:43;;;;;;;4.80;2.63;;;18.10;52.90;;;;;;5020560;28;20127;-75
2022/06/17 03:41:26;;;;;;;2.75;1.90;;;18.00;52.90;;;;;;5037371;28;20028;-74
2022/06/17 03:44:05;;;;;;;2.53;1.70;;;18.00;52.90;;;;;;5045617;28;20392;-74
2022/06/17 03:46:43;;;;;;;2.00;1.80;;;18.00;53.00;;;;;;5028307;28;20035;-73
2022/06/17 03:49:27;;;;;;;2.70;1.95;;;17.90;52.80;;;;;;5034311;28;20047;-73
2022/06/17 03:52:02;;;;;;;2.50;2.25;;;17.90;52.90;;;;;;5034809;28;20033;-74
2022/06/17 03:54:28;;;;;;;2.97;2.08;;;17.90;53.00;;;;;;5042860;28;20025;-74
2022/06/17 03:56:58;;;;;;;2.67;2.15;;;17.80;52.80;;;;;;5025262;28;20037;-74
2022/06/17 03:59:29;;;;;;;3.85;2.20;;;17.80;52.90;;;;;;5024031;28;20260;-74
2022/06/17 04:02:07;;;;;;;2.10;1.90;;;17.80;53.00;;;;;;5022939;28;20063;-74
2022/06/17 04:04:38;;;;;;;4.22;2.10;;;17.80;53.10;;;;;;5025488;28;20072;-74
2022/06/17 04:07:04;;;;;;;2.00;1.80;;;17.80;53.10;;;;;;5027016;28;20033;-74
2022/06/17 04:09:39;;;;;;;2.65;1.92;;;17.70;52.90;;;;;;5028386;28;20025;-74
2022/06/17 04:12:19;;;;;;;1.90;1.55;;;17.70;52.90;;;;;;5039830;28;20490;-74
2022/06/17 04:15:46;;;;;;;2.10;1.63;;;17.70;53.00;;;;;;5027565;28;20045;-73
2022/06/17 04:18:13;;;;;;;2.13;1.90;;;17.70;53.00;;;;;;5025127;28;20128;-73
2022/06/17 04:20:43;;;;;;;1.92;1.83;;;17.70;52.90;;;;;;5044629;28;20033;-73
2022/06/17 04:23:17;;;;;;;2.58;1.95;;;17.70;53.00;;;;;;5041068;28;20510;-72
2022/06/17 04:26:15;;;;;;;3.15;2.10;;;17.60;52.90;;;;;;5037206;28;20127;-74
2022/06/17 04:28:56;;;;;;;2.20;1.75;;;17.60;52.80;;;;;;5024424;28;21063;-73
2022/06/17 04:31:29;;;;;;;3.47;1.75;;;17.70;53.10;;;;;;5028226;28;20041;-74
2022/06/17 04:34:18;;;;;;;2.95;1.75;;;17.70;53.00;;;;;;5021910;28;20034;-74
2022/06/17 04:36:55;;;;;;;3.50;1.92;;;17.70;53.00;;;;;;5023858;28;20048;-76
2022/06/17 04:39:43;;;;;;;2.25;2.05;;;17.60;52.80;;;;;;5025069;28;20024;-73
2022/06/17 04:42:36;;;;;;;3.65;2.17;;;17.70;53.00;;;;;;5011922;28;20129;-73
2022/06/17 04:45:03;;;;;;;2.30;1.95;;;17.70;52.90;;;;;;5013823;28;20430;-73
2022/06/17 04:47:32;;;;;;;3.88;1.95;;;17.70;52.90;;;;;;5025237;28;20060;-74
2022/06/17 04:50:09;;;;;;;2.97;1.52;;;17.60;52.70;;;;;;5018106;28;20291;-73
2022/06/17 04:52:44;;;;;;;4.45;2.03;;;17.60;52.70;;;;;;5031412;28;20033;-73
2022/06/17 04:55:38;;;;;;;3.03;1.88;;;17.60;52.70;;;;;;5017277;28;20044;-73
2022/06/17 04:58:40;;;;;;;4.82;1.90;;;17.70;52.80;;;;;;4988340;28;20038;-74
2022/06/17 05:01:18;;;;;;;3.10;1.85;;;17.70;52.70;;;;;;5011284;28;20603;-73
2022/06/17 05:04:01;;;;;;;2.28;1.77;;;17.70;52.80;;;;;;5024029;28;20127;-75
2022/06/17 05:06:38;;;;;;;2.15;1.42;;;17.70;52.70;;;;;;5035719;28;20138;-75
2022/06/17 05:09:13;;;;;;;2.63;2.42;;;17.80;52.90;;;;;;5012442;28;20049;-76
2022/06/17 05:11:46;;;;;;;3.15;1.63;;;17.80;52.90;;;;;;5009702;28;20468;-76
2022/06/17 05:14:22;;;;;;;2.67;1.87;;;17.80;52.80;;;;;;5013754;28;20098;-75
2022/06/17 05:16:49;;;;;;;2.60;1.80;;;17.80;52.80;;;;;;5033732;28;20310;-74
2022/06/17 05:19:16;;;;;;;2.65;1.52;;;17.80;52.80;;;;;;5014607;28;20032;-75
2022/06/17 05:21:42;;;;;;;1.92;1.42;;;17.90;53.00;;;;;;5029999;28;20041;-75
2022/06/17 05:24:13;;;;;;;3.40;1.48;;;17.90;53.00;;;;;;5017450;28;20389;-74
2022/06/17 05:26:40;;;;;;;1.83;1.63;;;17.90;53.00;;;;;;5022942;28;20094;-75
2022/06/17 05:29:09;;;;;;;2.25;1.60;;;17.90;53.00;;;;;;5014518;28;20055;-76
2022/06/17 05:31:41;;;;;;;4.60;1.55;;;17.90;52.90;;;;;;5029337;28;20087;-75
2022/06/17 05:34:09;;;;;;;3.53;2.08;;;17.90;52.90;;;;;;5016353;28;20045;-75
2022/06/17 05:36:36;;;;;;;3.70;1.70;;;17.90;52.90;;;;;;5018246;28;20025;-75
2022/06/17 05:39:03;;;;;;;1.90;1.75;;;18.00;53.00;;;;;;5022738;28;20071;-76
2022/06/17 05:41:30;;;;;;;3.72;2.10;;;18.00;53.00;;;;;;5019692;28;20114;-75
2022/06/17 05:43:56;;;;;;;3.53;1.90;;;18.00;53.00;;;;;;5021565;28;20040;-74
2022/06/17 05:46:47;;;;;;;2.70;1.77;;;18.10;53.20;;;;;;5024317;28;20033;-75
2022/06/17 05:49:31;;;;;;;3.00;1.58;;;18.10;53.00;;;;;;5015609;28;20041;-74
2022/06/17 05:52:04;;;;;;;2.65;1.70;;;18.10;52.90;;;;;;5014465;28;20161;-74
2022/06/17 05:55:04;;;;;;;2.88;1.95;;;18.20;53.00;;;;;;5009888;28;20033;-75
2022/06/17 05:57:30;;;;;;;4.60;2.15;;;18.30;53.20;;;;;;5020035;28;20044;-75
2022/06/17 05:59:57;;;;;;;2.85;2.15;;;18.30;53.30;;;;;;5015970;28;20033;-76
2022/06/17 06:02:23;;;;;;;4.53;2.53;;;18.40;53.60;;;;;;5039954;28;20116;-75
2022/06/17 06:05:04;;;;;;;2.50;2.22;;;18.50;53.90;;;;;;5021696;28;20025;-75
2022/06/17 06:07:34;;;;;;;4.75;3.30;;;18.60;54.20;;;;;;5024573;28;20541;-77
2022/06/17 06:10:00;;;;;;;3.60;2.65;;;18.70;54.90;;;;;;5024698;28;20128;-76
2022/06/17 06:12:53;;;;;;;5.13;2.60;;;18.80;55.90;;;;;;5021464;28;20109;-76
2022/06/17 06:15:14;;;;;;;4.30;2.28;;;19.00;56.90;;;;;;5035173;28;20052;-77
2022/06/17 06:17:53;;;;;;;3.60;2.47;;;19.20;57.40;;;;;;5021882;28;20048;-76
2022/06/17 06:20:20;;;;;;;6.93;2.22;;;19.40;57.90;;;;;;5032233;28;20033;-75
2022/06/17 06:22:46;;;;;;;5.85;2.38;;;19.50;58.20;;;;;;5020154;28;20067;-76
2022/06/17 06:25:14;;;;;;;3.55;2.28;;;19.80;58.80;;;;;;5006123;28;20116;-77
2022/06/17 06:27:41;;;;;;;5.07;2.88;;;19.90;58.80;;;;;;5027240;28;20045;-76
2022/06/17 06:30:23;;;;;;;4.38;2.80;;;20.20;59.00;;;;;;5039547;28;20024;-75
2022/06/17 06:32:56;;;;;;;3.05;2.70;;;20.40;58.90;;;;;;5005649;28;20033;-77
2022/06/17 06:35:26;;;;;;;7.30;2.20;;;20.60;58.40;;;;;;5009008;28;20126;-75
2022/06/17 06:37:52;;;;;;;5.35;2.65;;;21.00;58.50;;;;;;5037003;28;20206;-76
2022/06/17 06:40:19;;;;;;;3.08;2.28;;;21.30;58.10;;;;;;5017687;28;20040;-76
2022/06/17 06:42:50;;;;;;;3.25;2.03;;;21.60;57.80;;;;;;5006319;28;20029;-75
2022/06/17 06:45:39;;;;;;;5.63;2.55;;;21.80;58.40;;;;;;4995507;28;20094;-76
2022/06/17 06:48:07;;;;;;;2.88;2.05;;;22.00;57.90;;;;;;5024161;28;20041;-76
2022/06/17 06:50:35;;;;;;;3.72;1.98;;;22.20;58.00;;;;;;5022349;28;20033;-76
2022/06/17 06:53:03;;;;;;;2.28;1.92;;;22.40;58.20;;;;;;5015856;28;20131;-77
2022/06/17 06:55:29;;;;;;;3.58;2.13;;;22.70;58.10;;;;;;5014139;28;20037;-76
2022/06/17 06:58:02;;;;;;;3.88;2.13;;;23.20;58.10;;;;;;5014294;28;20055;-75
2022/06/17 07:00:35;;;;;;;4.72;2.03;;;23.50;57.70;;;;;;5023119;28;20397;-74
2022/06/17 07:03:01;;;;;;;;;;;23.80;57.40;;;;;;5022206;28;20078;-76
2022/06/17 07:05:29;;;;;;;2.65;1.83;;;24.20;57.50;;;;;;5035382;28;19912;-75
2022/06/17 07:07:56;;;;;;;3.25;2.20;;;24.40;57.10;;;;;;5032337;28;20021;-76
2022/06/17 07:10:26;;;;;;;4.20;1.73;;;24.40;56.90;;;;;;5024775;28;20327;-75
2022/06/17 07:12:52;;;;;;;5.80;2.90;;;24.50;57.00;;;;;;5006955;28;20386;-74
2022/06/17 07:15:19;;;;;;;3.28;1.85;;;24.80;57.20;;;;;;5041046;28;20032;-74
2022/06/17 07:18:00;;;;;;;4.60;2.00;;;25.10;56.70;;;;;;5042654;28;20033;-75
2022/06/17 07:20:31;;;;;;;3.97;2.28;;;25.40;55.80;;;;;;5040794;28;20029;-74
2022/06/17 07:22:57;;;;;;;4.22;2.15;;;25.60;55.80;;;;;;5040716;28;20112;-74
2022/06/17 07:25:23;;;;;;;3.55;2.20;;;25.60;55.70;;;;;;5035092;28;20033;-76
2022/06/17 07:27:49;;;;;;;6.45;2.17;;;25.80;55.50;;;;;;5013335;28;20501;-76
2022/06/17 07:30:17;;;;;;;5.80;2.95;;;26.00;55.40;;;;;;5043611;28;20017;-74
2022/06/17 07:32:44;;;;;;;2.55;2.08;;;26.30;54.80;;;;;;5013086;28;20064;-76
2022/06/17 07:35:10;;;;;;;3.97;2.15;;;26.80;53.70;;;;;;5043006;28;20071;-76
2022/06/17 07:40:21;;;;;;;4.93;2.40;;;27.60;52.00;;;;;;5037900;28;20033;-77
2022/06/17 07:42:47;;;;;;;8.75;1.83;;;28.10;51.10;;;;;;5023852;28;20037;-75
2022/06/17 07:45:16;;;;;;;3.72;2.50;;;28.50;50.30;;;;;;5043134;28;20017;-75
2022/06/17 07:47:43;;;;;;;4.85;2.67;;;28.90;49.60;;;;;;5037691;28;20064;-75
2022/06/17 07:50:14;;;;;;;3.70;1.70;;;29.30;48.90;;;;;;5054591;28;20148;-75
2022/06/17 07:52:40;;;;;;;4.18;2.00;;;29.70;48.10;;;;;;5065283;28;20084;-74
2022/06/17 07:55:07;;;;;;;5.00;2.33;;;30.00;47.40;;;;;;5057450;28;20036;-73
2022/06/17 07:57:33;;;;;;;4.28;2.38;;;30.40;46.80;;;;;;5054377;28;20041;-74
2022/06/17 07:59:59;;;;;;;4.65;2.10;;;30.70;46.30;;;;;;5060331;28;20048;-74
2022/06/17 08:02:25;;;;;;;4.00;2.25;;;30.90;45.90;;;;;;5065890;28;20052;-74
2022/06/17 08:04:51;;;;;;;5.30;2.55;;;30.80;45.80;;;;;;5069308;28;20029;-75
2022/06/17 08:07:17;;;;;;;5.75;2.15;;;30.60;46.10;;;;;;5044297;28;20063;-74
2022/06/17 08:09:44;;;;;;;4.57;1.80;;;30.30;46.40;;;;;;5044829;28;20033;-75
2022/06/17 08:12:13;;;;;;;6.13;2.38;;;30.10;46.90;;;;;;5034442;28;20642;-76
2022/06/17 08:14:44;;;;;;;7.97;2.78;;;29.80;47.20;;;;;;5025194;28;20338;-76
2022/06/17 08:17:15;;;;;;;6.72;2.10;;;29.70;47.60;;;;;;5040407;28;20064;-76
2022/06/17 08:19:45;;;;;;;6.80;2.55;;;29.50;47.70;;;;;;5041684;28;20039;-74
2022/06/17 08:22:11;;;;;;;5.50;2.50;;;29.40;47.70;;;;;;5040216;28;20037;-75
2022/06/17 08:24:37;;;;;;;4.03;2.63;;;29.40;47.70;;;;;;5041601;28;20082;-74
2022/06/17 08:27:03;;;;;;;4.43;2.08;;;29.40;47.40;;;;;;5039192;28;20298;-76
2022/06/17 08:29:30;;;;;;;5.22;2.45;;;29.40;47.20;;;;;;5017589;28;20055;-75
2022/06/17 08:32:44;;;;;;;4.85;2.90;;;29.30;47.00;;;;;;5041005;28;20039;-74
2022/06/17 08:34:43;;;;;;;7.53;2.60;;;29.30;46.80;;;;;;5043563;28;20045;-75
2022/06/17 08:37:13;;;;;;;4.80;2.15;;;29.40;46.80;;;;;;5036563;28;20044;-75
2022/06/17 08:39:39;;;;;;;3.92;2.08;;;29.40;46.60;;;;;;5037796;28;20484;-74
2022/06/17 08:42:21;;;;;;;6.35;2.25;;;29.50;46.60;;;;;;5042205;28;20025;-75
2022/06/17 08:45:10;;;;;;;7.45;2.38;;;29.50;46.20;;;;;;5007915;28;20117;-74
2022/06/17 08:48:03;;;;;;;4.28;2.33;;;29.60;45.90;;;;;;5038933;28;20053;-74
2022/06/17 08:50:51;;;;;;;4.20;2.25;;;29.60;45.70;;;;;;5037079;28;20111;-74
2022/06/17 08:53:41;;;;;;;4.10;2.00;;;29.70;45.60;;;;;;5033753;28;20039;-73
2022/06/17 08:56:36;;;;;;;3.72;2.17;;;29.80;45.50;;;;;;5031251;28;20092;-74
2022/06/17 08:59:30;;;;;;;6.60;1.90;;;29.90;45.50;;;;;;5033136;28;20064;-76
2022/06/17 09:02:19;;;;;;;7.93;2.30;;;29.90;45.40;;;;;;5021823;28;20053;-74
2022/06/17 09:04:48;;;;;;;4.05;2.45;;;30.10;45.30;;;;;;5021310;28;20112;-74
2022/06/17 09:07:38;;;;;;;4.30;2.17;;;30.20;45.30;;;;;;5027484;28;20033;-75
2022/06/17 09:10:14;;;;;;;6.82;2.38;;;30.30;45.10;;;;;;5034553;28;21241;-74
2022/06/17 09:13:10;;;;;;;4.70;2.78;;;30.40;45.00;;;;;;5041427;28;20377;-73
2022/06/17 09:15:41;;;;;;;3.42;1.98;;;30.60;44.90;;;;;;5038729;28;20107;-73
2022/06/17 09:18:16;;;;;;;4.35;2.50;;;30.70;44.90;;;;;;5039802;28;20207;-74
2022/06/17 09:20:44;;;;;;;5.15;2.50;;;30.80;44.80;;;;;;5033660;28;20760;-73
2022/06/17 09:23:15;;;;;;;4.05;2.20;;;30.90;44.70;;;;;;5039964;28;20599;-73
2022/06/17 09:25:44;;;;;;;6.28;2.00;;;30.90;44.50;;;;;;5031879;28;20025;-73
2022/06/17 09:28:15;;;;;;;3.65;2.30;;;31.00;44.50;;;;;;5029515;28;20089;-72
2022/06/17 09:30:49;;;;;;;5.28;2.58;;;31.10;44.40;;;;;;5027156;28;20037;-73
2022/06/17 09:33:39;;;;;;;4.57;2.63;;;31.20;44.20;;;;;;5037687;28;20511;-74
2022/06/17 09:36:19;;;;;;;4.88;2.45;;;31.30;44.10;;;;;;5037862;28;20396;-73
2022/06/17 09:38:56;;;;;;;4.03;2.58;;;31.30;44.00;;;;;;5040485;28;20037;-73
2022/06/17 09:41:33;;;;;;;6.90;2.63;;;31.40;44.00;;;;;;5040130;28;20418;-73
2022/06/17 09:44:20;;;;;;;3.88;2.78;;;31.60;44.00;;;;;;5038627;28;20533;-75
2022/06/17 09:46:56;;;;;;;5.80;2.30;;;31.70;43.70;;;;;;5005343;28;20587;-73
2022/06/17 09:49:25;;;;;;;6.07;2.30;;;31.70;43.60;;;;;;5040589;28;20032;-74
2022/06/17 09:52:22;;;;;;;4.30;2.33;;;31.80;43.50;;;;;;5038093;28;20060;-75
2022/06/17 09:55:16;;;;;;;8.45;2.75;;;31.90;43.30;;;;;;5037655;28;20127;-73
2022/06/17 09:57:58;;;;;;;4.60;3.00;;;31.90;43.30;;;;;;5033940;28;20033;-74
2022/06/17 10:00:30;;;;;;;3.47;2.63;;;32.10;43.30;;;;;;5038272;28;20063;-75
2022/06/17 10:03:25;;;;;;;5.57;2.58;;;32.20;43.30;;;;;;5040465;28;20120;-74
2022/06/17 10:06:07;;;;;;;11.38;2.55;;;32.20;43.20;;;;;;5038287;28;20079;-73
2022/06/17 10:08:50;;;;;;;4.38;2.42;;;32.40;43.20;;;;;;5032126;28;20498;-73
2022/06/17 10:11:38;;;;;;;4.55;2.58;;;32.50;43.20;;;;;;5033827;28;20389;-75
2022/06/17 10:14:36;;;;;;;3.53;2.78;;;32.60;43.00;;;;;;5038192;28;20496;-74
2022/06/17 10:20:27;;;;;;;11.50;3.35;;;32.80;42.70;;;;;;4997001;28;20087;-74
2022/06/17 10:23:21;;;;;;;4.72;2.70;;;32.90;42.70;;;;;;5006571;28;20620;-75
2022/06/17 10:26:25;;;;;;;10.02;3.28;;;33.00;42.70;;;;;;5034268;28;20029;-74
2022/06/17 10:28:54;;;;;;;12.02;2.30;;;33.10;42.50;;;;;;5001844;28;20416;-74
2022/06/17 10:31:42;;;;;;;3.60;2.60;;;33.20;42.50;;;;;;5017277;28;20299;-73
2022/06/17 10:34:20;;;;;;;9.45;3.20;;;33.20;42.20;;;;;;5017691;28;20033;-75
2022/06/17 10:36:47;;;;;;;8.65;3.42;;;33.30;42.10;;;;;;5036198;28;20148;-74
2022/06/17 10:39:16;;;;;;;6.82;3.17;;;33.40;42.10;;;;;;5036123;28;20029;-73
2022/06/17 10:41:43;;;;;;;8.48;3.45;;;33.50;42.00;;;;;;5033495;28;20029;-74
2022/06/17 10:44:13;;;;;;;4.20;2.92;;;33.60;42.00;;;;;;5041923;28;20489;-75
2022/06/17 10:46:44;;;;;;;2.92;2.35;;;33.70;41.90;;;;;;5037101;28;20539;-74
2022/06/17 10:49:19;;;;;;;5.53;2.70;;;33.70;41.80;;;;;;5025446;28;20024;-74
2022/06/17 10:51:48;;;;;;;9.38;2.53;;;33.90;41.80;;;;;;5040780;28;20523;-73
2022/06/17 10:54:26;;;;;;;4.28;2.40;;;33.90;41.50;;;;;;5015050;28;20044;-73
2022/06/17 10:57:01;;;;;;;11.02;2.88;;;34.10;41.40;;;;;;5038443;28;20392;-73
2022/06/17 10:59:53;;;;;;;4.30;3.08;;;34.20;41.30;;;;;;5025606;28;20048;-76
2022/06/17 11:02:31;;;;;;;5.15;2.10;;;34.30;41.60;;;;;;5014574;28;20068;-73
2022/06/17 11:05:05;;;;;;;4.63;2.65;;;34.30;41.00;;;;;;5038682;28;20036;-75
2022/06/17 11:07:33;;;;;;;4.93;3.25;;;34.50;40.90;;;;;;5024712;28;20119;-74
2022/06/17 11:10:14;;;;;;;4.32;2.80;;;34.50;40.80;;;;;;5021878;28;20493;-75
2022/06/17 11:12:54;;;;;;;3.55;2.58;;;34.60;40.50;;;;;;5025495;28;20029;-74
2022/06/17 11:15:26;;;;;;;4.70;2.53;;;34.60;40.50;;;;;;5030253;28;20029;-76
2022/06/17 11:17:57;;;;;;;9.70;3.15;;;34.80;40.60;;;;;;5040890;28;20045;-76
2022/06/17 11:20:33;;;;;;;3.85;2.28;;;34.90;40.50;;;;;;5024367;28;20029;-74
2022/06/17 11:23:07;;;;;;;6.15;2.88;;;35.00;40.40;;;;;;5040579;28;20052;-78
2022/06/17 11:25:40;;;;;;;5.88;2.78;;;35.10;40.30;;;;;;5018456;28;20026;-75
2022/06/17 11:28:11;;;;;;;9.52;3.22;;;35.20;40.20;;;;;;5041212;28;20043;-76
2022/06/17 11:31:02;;;;;;;5.20;3.08;;;35.30;40.10;;;;;;5035997;28;20408;-77
2022/06/17 11:33:33;;;;;;;5.40;2.67;;;35.40;39.90;;;;;;5031958;28;20589;-74
2022/06/17 11:36:09;;;;;;;6.27;3.60;;;35.50;39.90;;;;;;5041525;28;20044;-76
2022/06/17 11:38:35;;;;;;;6.03;3.55;;;35.60;39.80;;;;;;5036835;28;20069;-74
2022/06/17 11:41:03;;;;;;;7.07;3.08;;;35.70;39.70;;;;;;5040708;28;20492;-75
2022/06/17 11:43:40;;;;;;;6.47;2.97;;;35.70;39.50;;;;;;5041851;28;20035;-74
2022/06/17 11:46:10;;;;;;;5.68;2.55;;;35.80;39.10;;;;;;5042084;28;20067;-73
2022/06/17 11:48:48;;;;;;;5.25;2.88;;;35.90;39.00;;;;;;5045873;28;20044;-73
2022/06/17 11:51:17;;;;;;;4.90;2.47;;;35.90;38.60;;;;;;5039383;28;20435;-73
2022/06/17 11:53:51;;;;;;;6.53;3.22;;;36.00;38.70;;;;;;5022006;28;21849;-74
2022/06/17 11:56:36;;;;;;;4.97;2.40;;;36.00;38.50;;;;;;5026350;28;20138;-74
2022/06/17 11:59:26;;;;;;;4.38;2.55;;;36.00;38.10;;;;;;5035436;28;20116;-73
2022/06/17 12:02:03;;;;;;;8.15;3.33;;;36.00;38.10;;;;;;5018043;28;20435;-74
2022/06/17 12:04:39;;;;;;;6.00;2.67;;;36.00;38.20;;;;;;5019442;28;20473;-75
2022/06/17 12:07:28;;;;;;;4.72;2.83;;;36.10;38.20;;;;;;5025147;28;20041;-74
2022/06/17 12:10:17;;;;;;;5.88;2.88;;;36.10;38.00;;;;;;5041768;28;20073;-75
2022/06/17 12:12:45;;;;;;;7.28;2.97;;;36.10;38.00;;;;;;5035737;28;20029;-73
2022/06/17 12:15:49;;;;;;;6.82;2.47;;;36.10;38.10;;;;;;5032699;28;20041;-74
2022/06/17 12:18:26;;;;;;;6.20;2.90;;;36.10;37.80;;;;;;5015131;28;20056;-75
2022/06/17 12:21:12;;;;;;;6.07;3.25;;;36.10;37.70;;;;;;5038240;28;20513;-75
2022/06/17 12:23:46;;;;;;;6.20;2.63;;;36.20;37.60;;;;;;5030141;28;20433;-75
2022/06/17 12:26:36;;;;;;;4.55;2.42;;;36.20;37.50;;;;;;5033177;28;20041;-75
2022/06/17 12:29:30;;;;;;;2.50;2.30;;;36.20;37.30;;;;;;5042362;28;20037;-73
2022/06/17 12:32:09;;;;;;;9.32;2.88;;;36.30;37.30;;;;;;5021312;28;20029;-73
2022/06/17 12:35:05;;;;;;;5.43;2.63;;;36.30;37.30;;;;;;5044967;28;20510;-74
2022/06/17 12:37:51;;;;;;;5.50;2.92;;;36.40;37.30;;;;;;5039231;28;20045;-74
2022/06/17 12:40:26;;;;;;;7.93;3.55;;;36.50;37.20;;;;;;5036035;28;20033;-74
2022/06/17 12:43:05;;;;;;;4.75;2.88;;;36.50;37.20;;;;;;5014988;28;20068;-74
2022/06/17 12:45:49;;;;;;;5.32;2.60;;;36.60;37.20;;;;;;5035363;28;20034;-73
2022/06/17 12:48:25;;;;;;;4.60;2.25;;;36.60;37.00;;;;;;5021743;28;20424;-74
2022/06/17 12:54:07;;;;;;;8.88;3.22;;;36.70;37.10;;;;;;5038776;28;20147;-77
2022/06/17 12:56:38;;;;;;;4.83;2.90;;;36.70;36.80;;;;;;5018273;28;20496;-73
2022/06/17 12:59:22;;;;;;;8.55;3.38;;;36.80;37.10;;;;;;5021774;28;20029;-75
2022/06/17 13:02:07;;;;;;;3.72;2.58;;;36.80;37.00;;;;;;5038982;28;20337;-74
2022/06/17 13:04:48;;;;;;;6.10;2.65;;;36.80;36.80;;;;;;5033849;28;20394;-75
2022/06/17 13:07:28;;;;;;;6.25;2.95;;;36.80;36.80;;;;;;5030238;28;20148;-75
2022/06/17 13:13:08;;;;;;;4.43;3.00;;;36.80;36.60;;;;;;5035565;28;20044;-75
2022/06/17 13:15:38;;;;;;;;;;;36.80;36.80;;;;;;5040357;28;20075;-74
2022/06/17 13:18:11;;;;;;;6.70;3.35;;;36.80;37.00;;;;;;5032445;28;19920;-76
2022/06/17 13:21:01;;;;;;;6.93;3.25;;;36.80;36.90;;;;;;5016524;28;20052;-74
2022/06/17 13:23:46;;;;;;;7.15;2.80;;;36.90;36.80;;;;;;5030599;28;20082;-72
2022/06/17 13:26:22;;;;;;;7.60;3.05;;;36.90;36.80;;;;;;5016700;28;20040;-75
2022/06/17 13:29:14;;;;;;;9.88;3.17;;;36.90;36.70;;;;;;5040551;28;20074;-77
2022/06/17 13:31:53;;;;;;;5.22;2.70;;;36.90;36.60;;;;;;5026688;28;20059;-74
2022/06/17 13:34:29;;;;;;;8.75;3.05;;;36.90;36.70;;;;;;5014975;28;20104;-75
2022/06/17 13:37:06;;;;;;;5.13;2.80;;;37.00;36.70;;;;;;4998885;28;20654;-77
2022/06/17 13:39:37;;;;;;;9.60;3.30;;;37.00;36.50;;;;;;5006808;28;20029;-75
2022/06/17 13:42:05;;;;;;;9.93;3.00;;;37.00;36.50;;;;;;5035731;28;20032;-74